sensor_id;sensor_type;location;lat;lon;timestamp;pressure;altitude;pressure_sealevel;temperature;humidity
40276;BME280;25990;52.768;16.930;2024-03-25T00:01:16;100030.68;;;4.58;86.97
40276;BME280;25990;52.768;16.930;2024-03-25T00:03:38;100023.34;;;4.64;87.36
40276;BME280;25990;52.768;16.930;2024-03-25T00:06:00;100025.32;;;4.68;87.09
40276;BME280;25990;52.768;16.930;2024-03-25T00:08:23;100020.17;;;4.68;87.08
40276;BME280;25990;52.768;16.930;2024-03-25T00:10:45;100019.30;;;4.67;87.19
40276;BME280;25990;52.768;16.930;2024-03-25T00:13:07;100018.31;;;4.65;86.90
40276;BME280;25990;52.768;16.930;2024-03-25T00:15:30;100017.51;;;4.66;86.83
40276;BME280;25990;52.768;16.930;2024-03-25T00:17:52;100016.53;;;4.64;87.36
40276;BME280;25990;52.768;16.930;2024-03-25T00:20:17;100014.05;;;4.66;87.43
40276;BME280;25990;52.768;16.930;2024-03-25T00:22:37;100014.05;;;4.66;87.08
40276;BME280;25990;52.768;16.930;2024-03-25T00:24:59;100011.30;;;4.63;86.50
40276;BME280;25990;52.768;16.930;2024-03-25T00:27:21;100007.07;;;4.63;86.90
40276;BME280;25990;52.768;16.930;2024-03-25T00:29:44;100013.08;;;4.64;87.18
40276;BME280;25990;52.768;16.930;2024-03-25T00:32:06;100009.02;;;4.67;87.14
40276;BME280;25990;52.768;16.930;2024-03-25T00:34:28;100017.78;;;4.71;87.35
40276;BME280;25990;52.768;16.930;2024-03-25T00:36:50;100009.20;;;4.70;87.40
40276;BME280;25990;52.768;16.930;2024-03-25T00:39:13;100010.27;;;4.74;87.27
40276;BME280;25990;52.768;16.930;2024-03-25T00:41:35;100005.82;;;4.71;87.11
40276;BME280;25990;52.768;16.930;2024-03-25T00:43:57;100002.48;;;4.72;87.34
40276;BME280;25990;52.768;16.930;2024-03-25T00:46:20;100014.60;;;4.75;87.36
40276;BME280;25990;52.768;16.930;2024-03-25T00:48:42;100010.27;;;4.74;87.37
40276;BME280;25990;52.768;16.930;2024-03-25T00:51:05;100012.91;;;4.75;87.26
40276;BME280;25990;52.768;16.930;2024-03-25T00:53:27;100010.27;;;4.74;87.31
40276;BME280;25990;52.768;16.930;2024-03-25T00:55:49;100006.73;;;4.72;87.57
40276;BME280;25990;52.768;16.930;2024-03-25T00:58:11;100004.33;;;4.75;87.33
40276;BME280;25990;52.768;16.930;2024-03-25T01:00:34;100005.15;;;4.74;87.58
40276;BME280;25990;52.768;16.930;2024-03-25T01:02:56;100002.64;;;4.75;87.35
40276;BME280;25990;52.768;16.930;2024-03-25T01:05:18;100005.30;;;4.77;87.44
40276;BME280;25990;52.768;16.930;2024-03-25T01:07:41;100006.90;;;4.75;87.70
40276;BME280;25990;52.768;16.930;2024-03-25T01:10:03;100001.16;;;4.79;87.52
40276;BME280;25990;52.768;16.930;2024-03-25T01:12:26;100009.12;;;4.84;87.44
40276;BME280;25990;52.768;16.930;2024-03-25T01:14:47;99995.77;;;4.89;87.19
40276;BME280;25990;52.768;16.930;2024-03-25T01:17:10;100000.36;;;4.95;86.54
40276;BME280;25990;52.768;16.930;2024-03-25T01:19:32;100004.62;;;4.94;86.52
40276;BME280;25990;52.768;16.930;2024-03-25T01:21:54;99999.64;;;4.97;86.08
40276;BME280;25990;52.768;16.930;2024-03-25T01:24:17;99996.45;;;5.02;86.15
40276;BME280;25990;52.768;16.930;2024-03-25T01:26:39;99990.45;;;5.01;85.96
40276;BME280;25990;52.768;16.930;2024-03-25T01:29:01;99993.12;;;5.03;86.00
40276;BME280;25990;52.768;16.930;2024-03-25T01:31:24;99992.30;;;5.04;85.59
40276;BME280;25990;52.768;16.930;2024-03-25T01:33:46;99997.44;;;5.04;85.68
40276;BME280;25990;52.768;16.930;2024-03-25T01:36:08;100001.77;;;5.05;85.59
40276;BME280;25990;52.768;16.930;2024-03-25T01:38:31;100001.87;;;5.06;85.46
40276;BME280;25990;52.768;16.930;2024-03-25T01:40:53;100001.96;;;5.08;85.82
40276;BME280;25990;52.768;16.930;2024-03-25T01:43:15;100005.51;;;5.10;85.79
40276;BME280;25990;52.768;16.930;2024-03-25T01:45:38;100004.62;;;5.09;85.66
40276;BME280;25990;52.768;16.930;2024-03-25T01:48:04;100000.43;;;5.11;85.83
40276;BME280;25990;52.768;16.930;2024-03-25T01:50:22;99999.75;;;5.14;85.67
40276;BME280;25990;52.768;16.930;2024-03-25T01:52:45;99998.93;;;5.15;85.53
40276;BME280;25990;52.768;16.930;2024-03-25T01:55:10;99993.79;;;5.15;85.66
40276;BME280;25990;52.768;16.930;2024-03-25T01:57:29;99985.12;;;5.13;85.76
40276;BME280;25990;52.768;16.930;2024-03-25T01:59:52;99989.90;;;5.07;86.13
40276;BME280;25990;52.768;16.930;2024-03-25T02:02:14;99989.56;;;5.01;86.56
40276;BME280;25990;52.768;16.930;2024-03-25T02:04:37;99990.45;;;5.01;86.44
40276;BME280;25990;52.768;16.930;2024-03-25T02:06:58;99989.63;;;5.02;86.73
40276;BME280;25990;52.768;16.930;2024-03-25T02:09:22;99993.99;;;5.03;86.72
40276;BME280;25990;52.768;16.930;2024-03-25T02:11:43;99994.16;;;5.06;86.27
40276;BME280;25990;52.768;16.930;2024-03-25T02:14:06;99991.69;;;5.08;86.31
40276;BME280;25990;52.768;16.930;2024-03-25T02:16:28;99995.13;;;5.08;86.32
40276;BME280;25990;52.768;16.930;2024-03-25T02:18:51;99993.27;;;5.06;86.11
40276;BME280;25990;52.768;16.930;2024-03-25T02:21:13;99997.60;;;5.07;86.03
40276;BME280;25990;52.768;16.930;2024-03-25T02:23:35;100000.82;;;5.03;86.60
40276;BME280;25990;52.768;16.930;2024-03-25T02:25:57;100001.77;;;5.05;86.44
40276;BME280;25990;52.768;16.930;2024-03-25T02:28:20;99996.72;;;5.06;86.50
40276;BME280;25990;52.768;16.930;2024-03-25T02:30:42;99993.12;;;5.03;86.79
40276;BME280;25990;52.768;16.930;2024-03-25T02:33:04;99995.38;;;4.98;86.98
40276;BME280;25990;52.768;16.930;2024-03-25T02:35:27;99994.34;;;4.94;87.42
40276;BME280;25990;52.768;16.930;2024-03-25T02:37:50;99995.94;;;4.92;87.81
40276;BME280;25990;52.768;16.930;2024-03-25T02:40:11;99997.42;;;4.89;88.17
40276;BME280;25990;52.768;16.930;2024-03-25T02:42:33;99999.28;;;4.91;87.99
40276;BME280;25990;52.768;16.930;2024-03-25T02:44:56;100006.37;;;4.95;87.98
40276;BME280;25990;52.768;16.930;2024-03-25T02:47:18;100008.33;;;5.00;87.68
40276;BME280;25990;52.768;16.930;2024-03-25T02:49:40;100004.00;;;4.98;87.64
40276;BME280;25990;52.768;16.930;2024-03-25T02:52:03;100009.75;;;4.94;87.82
40276;BME280;25990;52.768;16.930;2024-03-25T02:54:25;100006.20;;;4.92;87.97
40276;BME280;25990;52.768;16.930;2024-03-25T02:56:47;100005.33;;;4.92;88.01
40276;BME280;25990;52.768;16.930;2024-03-25T02:59:10;100007.97;;;4.93;87.66
40276;BME280;25990;52.768;16.930;2024-03-25T03:01:32;100012.23;;;4.93;88.35
40276;BME280;25990;52.768;16.930;2024-03-25T03:03:54;100014.07;;;4.95;88.16
40276;BME280;25990;52.768;16.930;2024-03-25T03:06:17;100004.52;;;4.93;88.37
40276;BME280;25990;52.768;16.930;2024-03-25T03:08:39;100010.47;;;4.92;88.43
40276;BME280;25990;52.768;16.930;2024-03-25T03:11:01;100008.68;;;4.91;88.59
40276;BME280;25990;52.768;16.930;2024-03-25T03:13:23;100010.47;;;4.92;88.44
40276;BME280;25990;52.768;16.930;2024-03-25T03:15:46;100016.84;;;4.98;88.05
40276;BME280;25990;52.768;16.930;2024-03-25T03:18:08;100013.30;;;4.96;88.26
40276;BME280;25990;52.768;16.930;2024-03-25T03:20:31;100018.44;;;4.96;87.80
40276;BME280;25990;52.768;16.930;2024-03-25T03:22:53;100022.59;;;4.94;87.94
40276;BME280;25990;52.768;16.930;2024-03-25T03:25:15;100018.44;;;4.96;87.97
40276;BME280;25990;52.768;16.930;2024-03-25T03:27:37;100018.44;;;4.96;88.02
40276;BME280;25990;52.768;16.930;2024-03-25T03:30:00;100024.55;;;4.98;88.03
40276;BME280;25990;52.768;16.930;2024-03-25T03:32:22;100020.19;;;4.97;88.06
40276;BME280;25990;52.768;16.930;2024-03-25T03:34:44;100023.37;;;4.93;87.94
40276;BME280;25990;52.768;16.930;2024-03-25T03:37:07;100022.76;;;4.97;87.81
40276;BME280;25990;52.768;16.930;2024-03-25T03:39:29;100026.21;;;4.98;88.04
40276;BME280;25990;52.768;16.930;2024-03-25T03:41:51;100027.02;;;4.97;87.87
40276;BME280;25990;52.768;16.930;2024-03-25T03:44:14;100027.89;;;4.97;87.67
40276;BME280;25990;52.768;16.930;2024-03-25T03:46:36;100024.45;;;4.97;87.90
40276;BME280;25990;52.768;16.930;2024-03-25T03:48:59;100032.26;;;4.98;87.70
40276;BME280;25990;52.768;16.930;2024-03-25T03:51:21;100029.75;;;5.00;87.70
40276;BME280;25990;52.768;16.930;2024-03-25T03:53:43;100024.71;;;5.02;87.69
40276;BME280;25990;52.768;16.930;2024-03-25T03:56:06;100033.40;;;5.04;87.46
40276;BME280;25990;52.768;16.930;2024-03-25T03:58:28;100033.30;;;5.02;87.41
40276;BME280;25990;52.768;16.930;2024-03-25T04:00:51;100032.32;;;5.00;87.35
40276;BME280;25990;52.768;16.930;2024-03-25T04:03:12;100038.10;;;4.96;87.50
40276;BME280;25990;52.768;16.930;2024-03-25T04:05:35;100038.10;;;4.96;87.82
40276;BME280;25990;52.768;16.930;2024-03-25T04:07:57;100037.19;;;4.95;87.81
40276;BME280;25990;52.768;16.930;2024-03-25T04:10:19;100037.90;;;4.93;87.96
40276;BME280;25990;52.768;16.930;2024-03-25T04:12:42;100038.88;;;4.95;87.84
40276;BME280;25990;52.768;16.930;2024-03-25T04:15:04;100041.18;;;4.90;87.89
40276;BME280;25990;52.768;16.930;2024-03-25T04:17:26;100045.50;;;4.91;88.06
40276;BME280;25990;52.768;16.930;2024-03-25T04:19:50;100046.32;;;4.90;88.14
40276;BME280;25990;52.768;16.930;2024-03-25T04:22:11;100050.64;;;4.91;88.08
40276;BME280;25990;52.768;16.930;2024-03-25T04:24:33;100052.60;;;4.95;87.92
40276;BME280;25990;52.768;16.930;2024-03-25T04:26:56;100054.28;;;4.95;87.70
40276;BME280;25990;52.768;16.930;2024-03-25T04:29:18;100052.80;;;4.98;87.53
40276;BME280;25990;52.768;16.930;2024-03-25T04:31:40;100054.76;;;5.03;87.57
40276;BME280;25990;52.768;16.930;2024-03-25T04:34:06;100057.33;;;5.03;87.74
40276;BME280;25990;52.768;16.930;2024-03-25T04:36:25;100064.22;;;5.04;87.77
40276;BME280;25990;52.768;16.930;2024-03-25T04:38:47;100064.38;;;5.07;87.65
40276;BME280;25990;52.768;16.930;2024-03-25T04:41:09;100073.06;;;5.09;87.55
40276;BME280;25990;52.768;16.930;2024-03-25T04:43:32;100072.30;;;5.10;87.74
40276;BME280;25990;52.768;16.930;2024-03-25T04:45:54;100069.02;;;5.12;87.50
40276;BME280;25990;52.768;16.930;2024-03-25T04:48:16;100078.48;;;5.13;87.51
40276;BME280;25990;52.768;16.930;2024-03-25T04:50:39;100080.38;;;5.16;87.33
40276;BME280;25990;52.768;16.930;2024-03-25T04:53:01;100080.54;;;5.19;87.41
40276;BME280;25990;52.768;16.930;2024-03-25T04:55:23;100075.49;;;5.21;87.47
40276;BME280;25990;52.768;16.930;2024-03-25T04:57:45;100080.63;;;5.21;87.24
40276;BME280;25990;52.768;16.930;2024-03-25T05:00:09;100091.78;;;5.21;87.12
40276;BME280;25990;52.768;16.930;2024-03-25T05:02:30;100087.63;;;5.23;87.21
40276;BME280;25990;52.768;16.930;2024-03-25T05:04:52;100092.15;;;5.27;87.14
40276;BME280;25990;52.768;16.930;2024-03-25T05:07:15;100094.02;;;5.30;86.83
40276;BME280;25990;52.768;16.930;2024-03-25T05:09:37;100094.72;;;5.27;86.90
40276;BME280;25990;52.768;16.930;2024-03-25T05:11:59;100108.45;;;5.28;86.85
40276;BME280;25990;52.768;16.930;2024-03-25T05:14:22;100104.39;;;5.31;87.05
40276;BME280;25990;52.768;16.930;2024-03-25T05:16:44;100106.15;;;5.32;87.05
40276;BME280;25990;52.768;16.930;2024-03-25T05:19:06;100112.16;;;5.33;86.75
40276;BME280;25990;52.768;16.930;2024-03-25T05:21:29;100107.23;;;5.36;86.81
40276;BME280;25990;52.768;16.930;2024-03-25T05:23:51;100109.86;;;5.37;86.77
40276;BME280;25990;52.768;16.930;2024-03-25T05:26:13;100121.93;;;5.38;86.75
40276;BME280;25990;52.768;16.930;2024-03-25T05:28:36;100108.27;;;5.39;86.71
40276;BME280;25990;52.768;16.930;2024-03-25T05:31:06;100118.64;;;5.41;86.63
40276;BME280;25990;52.768;16.930;2024-03-25T05:33:20;100118.74;;;5.43;86.87
40276;BME280;25990;52.768;16.930;2024-03-25T05:35:43;100120.50;;;5.44;87.25
40276;BME280;25990;52.768;16.930;2024-03-25T05:38:05;100119.80;;;5.46;86.95
40276;BME280;25990;52.768;16.930;2024-03-25T05:40:27;100130.17;;;5.48;87.25
40276;BME280;25990;52.768;16.930;2024-03-25T05:42:49;100129.35;;;5.49;87.27
40276;BME280;25990;52.768;16.930;2024-03-25T05:45:12;100132.90;;;5.51;87.09
40276;BME280;25990;52.768;16.930;2024-03-25T05:47:34;100129.71;;;5.55;87.16
40276;BME280;25990;52.768;16.930;2024-03-25T05:49:56;100134.95;;;5.56;87.09
40276;BME280;25990;52.768;16.930;2024-03-25T05:52:19;100135.06;;;5.58;87.04
40276;BME280;25990;52.768;16.930;2024-03-25T05:54:41;100136.98;;;5.62;87.12
40276;BME280;25990;52.768;16.930;2024-03-25T05:57:04;100139.65;;;5.64;86.95
40276;BME280;25990;52.768;16.930;2024-03-25T05:59:26;100145.94;;;5.69;86.92
40276;BME280;25990;52.768;16.930;2024-03-25T06:01:48;100147.81;;;5.71;86.96
40276;BME280;25990;52.768;16.930;2024-03-25T06:04:10;100149.68;;;5.74;86.58
40276;BME280;25990;52.768;16.930;2024-03-25T06:06:33;100148.96;;;5.76;86.45
40276;BME280;25990;52.768;16.930;2024-03-25T06:08:55;100155.24;;;5.81;86.39
40276;BME280;25990;52.768;16.930;2024-03-25T06:11:17;100163.94;;;5.84;86.27
40276;BME280;25990;52.768;16.930;2024-03-25T06:13:40;100163.21;;;5.86;86.18
40276;BME280;25990;52.768;16.930;2024-03-25T06:16:02;100163.41;;;5.89;85.69
40276;BME280;25990;52.768;16.930;2024-03-25T06:18:24;100166.05;;;5.91;86.00
40276;BME280;25990;52.768;16.930;2024-03-25T06:20:47;100175.55;;;5.92;85.89
40276;BME280;25990;52.768;16.930;2024-03-25T06:23:09;100176.72;;;5.97;85.98
40276;BME280;25990;52.768;16.930;2024-03-25T06:25:32;100170.97;;;6.01;85.84
40276;BME280;25990;52.768;16.930;2024-03-25T06:27:54;100175.66;;;6.08;85.79
40276;BME280;25990;52.768;16.930;2024-03-25T06:30:17;100178.41;;;6.11;85.24
40276;BME280;25990;52.768;16.930;2024-03-25T06:32:38;100184.70;;;6.16;85.38
40276;BME280;25990;52.768;16.930;2024-03-25T06:35:00;100188.24;;;6.18;85.33
40276;BME280;25990;52.768;16.930;2024-03-25T06:37:23;100188.24;;;6.18;85.04
40276;BME280;25990;52.768;16.930;2024-03-25T06:39:45;100193.73;;;6.25;84.91
40276;BME280;25990;52.768;16.930;2024-03-25T06:42:07;100185.55;;;6.32;85.18
40276;BME280;25990;52.768;16.930;2024-03-25T06:44:30;100193.52;;;6.36;84.96
40276;BME280;25990;52.768;16.930;2024-03-25T06:46:52;100191.05;;;6.38;84.46
40276;BME280;25990;52.768;16.930;2024-03-25T06:49:14;100198.77;;;6.38;84.30
40276;BME280;25990;52.768;16.930;2024-03-25T06:51:37;100200.38;;;6.36;84.63
40276;BME280;25990;52.768;16.930;2024-03-25T06:53:59;100199.56;;;6.37;84.27
40276;BME280;25990;52.768;16.930;2024-03-25T06:56:21;100199.91;;;6.43;84.76
40276;BME280;25990;52.768;16.930;2024-03-25T06:58:44;100212.24;;;6.49;84.75
40276;BME280;25990;52.768;16.930;2024-03-25T07:01:07;100217.45;;;6.50;84.75
40276;BME280;25990;52.768;16.930;2024-03-25T07:03:28;100213.27;;;6.52;84.56
40276;BME280;25990;52.768;16.930;2024-03-25T07:05:52;100219.40;;;6.54;84.40
40276;BME280;25990;52.768;16.930;2024-03-25T07:08:13;100229.70;;;6.54;84.60
40276;BME280;25990;52.768;16.930;2024-03-25T07:10:35;100226.16;;;6.52;84.40
40276;BME280;25990;52.768;16.930;2024-03-25T07:12:58;100235.67;;;6.53;84.66
40276;BME280;25990;52.768;16.930;2024-03-25T07:15:20;100238.05;;;6.50;84.33
40276;BME280;25990;52.768;16.930;2024-03-25T07:17:42;100242.17;;;6.47;84.02
40276;BME280;25990;52.768;16.930;2024-03-25T07:20:06;100251.39;;;6.43;84.46
40276;BME280;25990;52.768;16.930;2024-03-25T07:22:27;100247.05;;;6.42;84.68
40276;BME280;25990;52.768;16.930;2024-03-25T07:24:49;100249.63;;;6.42;84.90
40276;BME280;25990;52.768;16.930;2024-03-25T07:27:12;100252.27;;;6.43;84.98
40276;BME280;25990;52.768;16.930;2024-03-25T07:29:34;100254.78;;;6.42;85.12
40276;BME280;25990;52.768;16.930;2024-03-25T07:31:56;100254.78;;;6.42;84.87
40276;BME280;25990;52.768;16.930;2024-03-25T07:34:18;100253.97;;;6.43;84.87
40276;BME280;25990;52.768;16.930;2024-03-25T07:36:41;100259.28;;;6.46;85.04
40276;BME280;25990;52.768;16.930;2024-03-25T07:39:03;100263.45;;;6.44;84.89
40276;BME280;25990;52.768;16.930;2024-03-25T07:41:25;100262.77;;;6.47;84.86
40276;BME280;25990;52.768;16.930;2024-03-25T07:43:48;100266.22;;;6.47;84.21
40276;BME280;25990;52.768;16.930;2024-03-25T07:46:10;100272.34;;;6.49;84.34
40276;BME280;25990;52.768;16.930;2024-03-25T07:48:32;100271.37;;;6.47;84.84
40276;BME280;25990;52.768;16.930;2024-03-25T07:50:55;100272.40;;;6.51;84.31
40276;BME280;25990;52.768;16.930;2024-03-25T07:53:17;100282.02;;;6.53;84.58
40276;BME280;25990;52.768;16.930;2024-03-25T07:55:40;100284.91;;;6.59;84.80
40276;BME280;25990;52.768;16.930;2024-03-25T07:58:02;100279.95;;;6.62;84.51
40276;BME280;25990;52.768;16.930;2024-03-25T08:00:24;100288.66;;;6.65;84.29
40276;BME280;25990;52.768;16.930;2024-03-25T08:02:49;100289.53;;;6.65;83.68
40276;BME280;25990;52.768;16.930;2024-03-25T08:05:09;100290.87;;;6.73;84.35
40276;BME280;25990;52.768;16.930;2024-03-25T08:07:31;100297.14;;;6.78;84.18
40276;BME280;25990;52.768;16.930;2024-03-25T08:09:53;100300.13;;;6.86;83.62
40276;BME280;25990;52.768;16.930;2024-03-25T08:12:15;100307.33;;;6.92;83.58
40276;BME280;25990;52.768;16.930;2024-03-25T08:14:38;100309.52;;;7.00;83.33
40276;BME280;25990;52.768;16.930;2024-03-25T08:17:00;100310.76;;;7.07;83.08
40276;BME280;25990;52.768;16.930;2024-03-25T08:19:22;100314.30;;;7.09;83.07
40276;BME280;25990;52.768;16.930;2024-03-25T08:21:45;100313.48;;;7.10;82.89
40276;BME280;25990;52.768;16.930;2024-03-25T08:24:08;100315.33;;;7.13;82.65
40276;BME280;25990;52.768;16.930;2024-03-25T08:26:29;100314.70;;;7.17;82.58
40276;BME280;25990;52.768;16.930;2024-03-25T08:28:52;100313.97;;;7.19;82.71
40276;BME280;25990;52.768;16.930;2024-03-25T08:31:14;100324.57;;;7.24;83.29
40276;BME280;25990;52.768;16.930;2024-03-25T08:33:36;100322.05;;;7.25;82.94
40276;BME280;25990;52.768;16.930;2024-03-25T08:35:59;100326.32;;;7.25;82.94
40276;BME280;25990;52.768;16.930;2024-03-25T08:38:21;100322.92;;;7.26;82.99
40276;BME280;25990;52.768;16.930;2024-03-25T08:40:43;100327.20;;;7.25;82.85
40276;BME280;25990;52.768;16.930;2024-03-25T08:43:06;100329.53;;;7.21;82.70
40276;BME280;25990;52.768;16.930;2024-03-25T08:45:28;100330.26;;;7.18;83.29
40276;BME280;25990;52.768;16.930;2024-03-25T08:47:50;100346.11;;;7.10;83.23
40276;BME280;25990;52.768;16.930;2024-03-25T08:50:13;100346.67;;;7.04;83.37
40276;BME280;25990;52.768;16.930;2024-03-25T08:52:54;100347.20;;;6.98;83.60
40276;BME280;25990;52.768;16.930;2024-03-25T08:55:16;100345.62;;;6.86;83.71
40276;BME280;25990;52.768;16.930;2024-03-25T08:57:39;100349.64;;;6.80;83.93
40276;BME280;25990;52.768;16.930;2024-03-25T09:00:01;100345.83;;;6.74;84.51
40276;BME280;25990;52.768;16.930;2024-03-25T09:02:23;100356.30;;;6.77;85.57
40276;BME280;25990;52.768;16.930;2024-03-25T09:04:46;100352.58;;;6.87;85.87
40276;BME280;25990;52.768;16.930;2024-03-25T09:07:08;100354.68;;;6.94;85.44
40276;BME280;25990;52.768;16.930;2024-03-25T09:09:30;100359.27;;;6.99;85.01
40276;BME280;25990;52.768;16.930;2024-03-25T09:11:53;100357.35;;;6.95;84.44
40276;BME280;25990;52.768;16.930;2024-03-25T09:14:15;100356.38;;;6.93;84.16
40276;BME280;25990;52.768;16.930;2024-03-25T09:16:37;100360.87;;;6.97;84.74
40276;BME280;25990;52.768;16.930;2024-03-25T09:18:59;100370.12;;;7.09;84.07
40276;BME280;25990;52.768;16.930;2024-03-25T09:21:22;100367.06;;;7.16;83.99
40276;BME280;25990;52.768;16.930;2024-03-25T09:23:44;100370.96;;;7.24;83.57
40276;BME280;25990;52.768;16.930;2024-03-25T09:26:06;100363.41;;;7.43;83.63
40276;BME280;25990;52.768;16.930;2024-03-25T09:28:29;100367.81;;;7.77;83.56
40276;BME280;25990;52.768;16.930;2024-03-25T09:30:51;100362.96;;;8.00;81.47
40276;BME280;25990;52.768;16.930;2024-03-25T09:33:16;100359.00;;;8.06;80.31
40276;BME280;25990;52.768;16.930;2024-03-25T09:35:36;100376.24;;;8.07;78.16
40276;BME280;25990;52.768;16.930;2024-03-25T09:37:58;100378.59;;;8.03;79.07
40276;BME280;25990;52.768;16.930;2024-03-25T09:40:20;100378.77;;;8.06;80.26
40276;BME280;25990;52.768;16.930;2024-03-25T09:42:49;100385.92;;;8.12;79.05
40276;BME280;25990;52.768;16.930;2024-03-25T09:45:08;100381.64;;;8.28;78.84
40276;BME280;25990;52.768;16.930;2024-03-25T09:47:27;100386.01;;;8.46;78.61
40276;BME280;25990;52.768;16.930;2024-03-25T09:49:50;100384.67;;;8.54;77.02
40276;BME280;25990;52.768;16.930;2024-03-25T09:52:12;100387.20;;;8.53;77.09
40276;BME280;25990;52.768;16.930;2024-03-25T09:54:34;100393.84;;;8.65;77.56
40276;BME280;25990;52.768;16.930;2024-03-25T09:56:57;100384.95;;;8.77;76.71
40276;BME280;25990;52.768;16.930;2024-03-25T09:59:20;100393.37;;;8.90;75.00
40276;BME280;25990;52.768;16.930;2024-03-25T10:01:41;100389.16;;;9.10;74.09
40276;BME280;25990;52.768;16.930;2024-03-25T10:04:04;100385.23;;;9.37;76.83
40276;BME280;25990;52.768;16.930;2024-03-25T10:06:26;100387.62;;;9.51;73.94
40276;BME280;25990;52.768;16.930;2024-03-25T10:08:48;100391.78;;;9.67;73.41
40276;BME280;25990;52.768;16.930;2024-03-25T10:11:10;100389.95;;;9.65;70.50
40276;BME280;25990;52.768;16.930;2024-03-25T10:13:33;100391.04;;;9.50;71.75
40276;BME280;25990;52.768;16.930;2024-03-25T10:15:55;100394.21;;;9.45;73.75
40276;BME280;25990;52.768;16.930;2024-03-25T10:18:17;100399.04;;;9.37;73.38
40276;BME280;25990;52.768;16.930;2024-03-25T10:20:48;100405.67;;;9.32;73.81
40276;BME280;25990;52.768;16.930;2024-03-25T10:23:03;100399.79;;;9.35;72.17
40276;BME280;25990;52.768;16.930;2024-03-25T10:25:29;100396.54;;;9.58;72.28
40276;BME280;25990;52.768;16.930;2024-03-25T10:30:09;100402.91;;;9.84;70.47
40276;BME280;25990;52.768;16.930;2024-03-25T10:32:31;100401.01;;;9.80;67.78
40276;BME280;25990;52.768;16.930;2024-03-25T10:34:53;100400.47;;;9.68;67.51
40276;BME280;25990;52.768;16.930;2024-03-25T10:37:17;100406.60;;;9.70;66.94
40276;BME280;25990;52.768;16.930;2024-03-25T10:39:43;100407.55;;;9.72;67.67
40276;BME280;25990;52.768;16.930;2024-03-25T10:42:02;100415.39;;;9.93;69.90
40276;BME280;25990;52.768;16.930;2024-03-25T10:44:27;100416.00;;;10.07;68.53
40276;BME280;25990;52.768;16.930;2024-03-25T10:46:45;100414.16;;;10.24;68.05
40276;BME280;25990;52.768;16.930;2024-03-25T10:51:31;100408.16;;;10.44;65.82
40276;BME280;25990;52.768;16.930;2024-03-25T10:53:52;100413.01;;;10.56;64.42
40276;BME280;25990;52.768;16.930;2024-03-25T10:56:15;100411.75;;;10.67;64.90
40276;BME280;25990;52.768;16.930;2024-03-25T10:58:36;100406.98;;;10.78;65.01
40276;BME280;25990;52.768;16.930;2024-03-25T11:01:00;100412.25;;;10.80;64.18
40276;BME280;25990;52.768;16.930;2024-03-25T11:03:21;100419.57;;;10.69;62.46
40276;BME280;25990;52.768;16.930;2024-03-25T11:05:43;100420.34;;;10.66;66.73
40276;BME280;25990;52.768;16.930;2024-03-25T11:08:11;100422.64;;;10.39;59.77
40276;BME280;25990;52.768;16.930;2024-03-25T11:10:30;100431.22;;;10.19;59.68
40276;BME280;25990;52.768;16.930;2024-03-25T11:12:50;100428.46;;;9.96;60.15
40276;BME280;25990;52.768;16.930;2024-03-25T11:15:12;100438.24;;;9.64;61.95
40276;BME280;25990;52.768;16.930;2024-03-25T11:17:37;100438.99;;;9.62;62.67
40276;BME280;25990;52.768;16.930;2024-03-25T11:22:24;100448.80;;;9.69;63.63
40276;BME280;25990;52.768;16.930;2024-03-25T11:24:43;100441.46;;;9.78;66.07
40276;BME280;25990;52.768;16.930;2024-03-25T11:27:07;100440.41;;;9.92;65.32
40276;BME280;25990;52.768;16.930;2024-03-25T11:29:26;100437.95;;;10.15;65.68
40276;BME280;25990;52.768;16.930;2024-03-25T11:31:52;100434.52;;;10.34;62.82
40276;BME280;25990;52.768;16.930;2024-03-25T11:34:11;100432.66;;;10.31;62.39
40276;BME280;25990;52.768;16.930;2024-03-25T11:36:33;100436.28;;;10.35;62.82
40276;BME280;25990;52.768;16.930;2024-03-25T11:39:01;100434.73;;;10.39;62.46
40276;BME280;25990;52.768;16.930;2024-03-25T11:41:17;100434.52;;;10.34;63.50
40276;BME280;25990;52.768;16.930;2024-03-25T11:43:41;100443.77;;;10.29;63.86
40276;BME280;25990;52.768;16.930;2024-03-25T11:46:02;100435.29;;;10.13;65.24
40276;BME280;25990;52.768;16.930;2024-03-25T11:48:24;100445.79;;;9.97;64.09
40276;BME280;25990;52.768;16.930;2024-03-25T11:50:47;100449.31;;;9.80;62.67
40276;BME280;25990;52.768;16.930;2024-03-25T11:53:09;100448.52;;;9.63;65.07
40276;BME280;25990;52.768;16.930;2024-03-25T11:55:31;100450.09;;;9.59;66.43
40276;BME280;25990;52.768;16.930;2024-03-25T11:57:57;100442.91;;;9.53;68.66
40276;BME280;25990;52.768;16.930;2024-03-25T12:00:16;100437.73;;;9.53;67.58
40276;BME280;25990;52.768;16.930;2024-03-25T12:02:38;100437.95;;;9.58;69.53
40276;BME280;25990;52.768;16.930;2024-03-25T12:05:00;100444.91;;;9.59;69.06
40276;BME280;25990;52.768;16.930;2024-03-25T12:07:23;100450.60;;;9.70;68.53
40276;BME280;25990;52.768;16.930;2024-03-25T12:09:45;100452.23;;;9.87;69.42
40276;BME280;25990;52.768;16.930;2024-03-25T12:12:07;100444.45;;;10.05;66.96
40276;BME280;25990;52.768;16.930;2024-03-25T12:14:29;100452.41;;;10.10;63.86
40276;BME280;25990;52.768;16.930;2024-03-25T12:16:53;100442.94;;;10.10;65.98
40276;BME280;25990;52.768;16.930;2024-03-25T12:19:15;100447.64;;;10.19;65.27
40276;BME280;25990;52.768;16.930;2024-03-25T12:21:36;100441.78;;;10.23;63.55
40276;BME280;25990;52.768;16.930;2024-03-25T12:23:59;100447.76;;;10.22;63.00
40276;BME280;25990;52.768;16.930;2024-03-25T12:26:21;100448.88;;;10.27;63.36
40276;BME280;25990;52.768;16.930;2024-03-25T12:28:43;100450.11;;;10.35;64.36
40276;BME280;25990;52.768;16.930;2024-03-25T12:31:09;100447.52;;;10.35;62.19